Terminal Aerodrome Forecast
Issued by NWS Melbourne, FL

Home | Current Version | Previous Version | Text Only | Print | Product List | Glossary On
Versions: 1 2 3 4 5 6 7 8 9 10 11 12 13 14 15 16
000
FTUS42 KMLB 221100
TAFVRB
TAF
KVRB 221125Z 2212/2312 00000KT P6SM BKN250
     FM221500 13004KT P6SM SCT025 BKN200
     FM221800 11007KT P6SM VCTS SCT035CB SCT100 BKN200
      TEMPO 2218/2221 3SM TSRA BKN025CB
     FM230100 13004KT P6SM SCT050 BKN150=

USA.gov is the U.S. government's official web portal to all federal, state and local government web resources and services.